createdAt,value
2022-09-10T00:00:14.211Z,13.01
2022-09-10T00:01:16.864Z,12.90
2022-09-10T00:02:18.308Z,12.96
2022-09-10T00:03:19.749Z,12.98
2022-09-10T00:04:21.215Z,12.84
2022-09-10T00:05:22.641Z,13.07
2022-09-10T00:06:25.712Z,13.05
2022-09-10T00:07:27.115Z,13.03
2022-09-10T00:08:28.540Z,13.03
2022-09-10T00:09:29.982Z,12.97
2022-09-10T00:10:31.391Z,12.95
2022-09-10T00:11:32.872Z,12.98
2022-09-10T00:12:35.752Z,12.95
2022-09-10T00:13:38.943Z,12.71
2022-09-10T00:14:40.554Z,12.76
2022-09-10T00:15:44.957Z,12.75
2022-09-10T00:16:47.307Z,12.71
2022-09-10T00:17:48.769Z,12.61
2022-09-10T00:18:50.212Z,12.72
2022-09-10T00:19:51.633Z,12.66
2022-09-10T00:20:54.504Z,12.61
2022-09-10T00:21:55.947Z,12.57
2022-09-10T00:22:57.403Z,12.64
2022-09-10T00:23:59.105Z,12.69
2022-09-10T00:25:01.694Z,12.75
2022-09-10T00:26:11.569Z,12.76
2022-09-10T00:27:13.021Z,12.83
2022-09-10T00:28:15.778Z,12.82
2022-09-10T00:29:17.277Z,12.80
2022-09-10T00:30:18.745Z,12.70
2022-09-10T00:31:22.323Z,12.71
2022-09-10T00:32:23.778Z,12.82
2022-09-10T00:33:25.218Z,12.78
2022-09-10T00:34:26.660Z,12.87
2022-09-10T00:35:32.001Z,12.82
2022-09-10T00:36:36.635Z,12.79
2022-09-10T00:37:38.096Z,12.84
2022-09-10T00:38:39.709Z,12.86
2022-09-10T00:39:41.278Z,12.81
2022-09-10T00:40:42.776Z,12.87
2022-09-10T00:41:46.648Z,12.91
2022-09-10T00:42:48.055Z,12.88
2022-09-10T00:43:54.710Z,12.94
2022-09-10T00:45:01.851Z,12.92
2022-09-10T00:46:03.383Z,12.86
2022-09-10T00:47:07.627Z,12.98
2022-09-10T00:48:13.709Z,12.91
2022-09-10T00:49:19.516Z,13.03
2022-09-10T00:50:25.291Z,13.08
2022-09-10T00:51:29.683Z,13.16
2022-09-10T00:52:31.756Z,13.18
2022-09-10T00:53:33.580Z,13.18
2022-09-10T00:54:37.119Z,13.18
2022-09-10T00:55:42.278Z,13.21
2022-09-10T00:56:44.236Z,13.30
2022-09-10T00:57:49.064Z,13.29
2022-09-10T00:58:52.011Z,13.15
2022-09-10T00:59:58.812Z,13.14
2022-09-10T01:01:03.018Z,13.14
2022-09-10T01:02:04.627Z,13.08
2022-09-10T01:03:09.443Z,13.21
2022-09-10T01:04:10.940Z,13.18
2022-09-10T01:05:13.342Z,13.31
2022-09-10T01:06:15.294Z,13.35
2022-09-10T01:07:17.685Z,13.34
2022-09-10T01:08:19.404Z,13.02
2022-09-10T01:09:23.437Z,13.25
2022-09-10T01:10:27.456Z,13.23
2022-09-10T01:11:42.140Z,13.25
2022-09-10T01:13:03.166Z,13.26
2022-09-10T01:14:20.939Z,13.22
2022-09-10T01:15:34.804Z,13.18
2022-09-10T01:16:44.340Z,13.20
2022-09-10T01:18:00.797Z,13.20
2022-09-10T01:19:09.658Z,13.04
2022-09-10T01:20:34.192Z,13.18
2022-09-10T01:21:45.219Z,13.23
2022-09-10T01:23:05.159Z,13.15
2022-09-10T01:24:44.127Z,13.17
2022-09-10T01:25:55.890Z,13.20
2022-09-10T01:27:32.915Z,13.19
2022-09-10T01:28:41.017Z,13.10
2022-09-10T01:29:48.032Z,13.09
2022-09-10T01:30:53.358Z,13.09
2022-09-10T01:32:01.879Z,12.85
2022-09-10T01:33:08.953Z,12.96
2022-09-10T01:34:18.410Z,12.79
2022-09-10T01:35:23.922Z,12.74
2022-09-10T01:36:31.668Z,12.61
2022-09-10T01:37:37.464Z,12.74
2022-09-10T01:38:40.290Z,12.74
2022-09-10T01:39:42.679Z,12.54
2022-09-10T01:40:44.299Z,12.57
2022-09-10T01:41:46.269Z,12.64
2022-09-10T01:42:49.026Z,12.77
2022-09-10T01:43:50.470Z,12.68
2022-09-10T01:44:53.621Z,12.66
2022-09-10T01:46:13.209Z,12.72
2022-09-10T01:47:26.401Z,12.67
2022-09-10T01:48:43.146Z,12.59
2022-09-10T01:49:59.123Z,12.55
2022-09-10T01:51:07.393Z,12.42
2022-09-10T01:52:25.290Z,12.42
2022-09-10T01:53:54.293Z,12.35
2022-09-10T01:55:07.124Z,12.39
2022-09-10T01:56:19.877Z,12.31
2022-09-10T01:57:30.851Z,12.24
2022-09-10T01:58:37.522Z,12.37
2022-09-10T01:59:47.783Z,12.31
2022-09-10T02:00:56.643Z,12.35
2022-09-10T02:02:02.457Z,12.36
2022-09-10T02:03:09.364Z,12.41
2022-09-10T02:04:13.899Z,12.38
2022-09-10T02:05:19.241Z,12.33
2022-09-10T02:06:24.521Z,12.37
2022-09-10T02:07:27.944Z,12.29
2022-09-10T02:08:33.223Z,12.18
2022-09-10T02:09:34.690Z,12.32
2022-09-10T02:10:49.347Z,12.35
2022-09-10T02:11:54.590Z,12.40
2022-09-10T02:12:56.091Z,12.40
2022-09-10T02:13:58.877Z,12.60
2022-09-10T02:15:01.010Z,12.36
2022-09-10T02:16:05.541Z,12.34
2022-09-10T02:17:07.114Z,12.47
2022-09-10T02:18:08.836Z,12.24
2022-09-10T02:19:10.666Z,12.41
2022-09-10T02:20:13.704Z,12.53
2022-09-10T02:21:15.783Z,12.50
2022-09-10T02:22:18.394Z,12.37
2022-09-10T02:23:24.629Z,12.63
2022-09-10T02:24:26.172Z,12.65
2022-09-10T02:25:32.079Z,12.59
2022-09-10T02:26:33.768Z,12.61
2022-09-10T02:27:35.633Z,12.57
2022-09-10T02:28:38.319Z,12.55
2022-09-10T02:29:41.511Z,12.36
2022-09-10T02:30:42.952Z,12.36
2022-09-10T02:31:44.641Z,12.50
2022-09-10T02:32:46.077Z,12.45
2022-09-10T02:33:47.532Z,12.41
2022-09-10T02:34:49.082Z,12.45
2022-09-10T02:35:50.517Z,12.50
2022-09-10T02:36:51.963Z,12.50
2022-09-10T02:37:53.435Z,12.32
2022-09-10T02:38:54.918Z,12.40
2022-09-10T02:39:56.412Z,12.33
2022-09-10T02:40:57.928Z,12.38
2022-09-10T02:41:59.361Z,12.38
2022-09-10T02:43:00.762Z,12.53
2022-09-10T02:44:03.248Z,12.42
2022-09-10T02:45:07.082Z,12.49
2022-09-10T02:46:08.531Z,12.45
2022-09-10T02:47:10.096Z,12.38
2022-09-10T02:48:11.816Z,12.47
2022-09-10T02:49:13.383Z,12.57
2022-09-10T02:50:14.907Z,12.66
2022-09-10T02:51:16.319Z,12.56
2022-09-10T02:52:17.786Z,12.56
2022-09-10T02:53:19.483Z,12.55
2022-09-10T02:54:20.889Z,12.61
2022-09-10T02:55:22.301Z,12.62
2022-09-10T02:56:23.971Z,12.55
2022-09-10T02:57:25.767Z,12.54
2022-09-10T02:58:27.177Z,12.63
2022-09-10T02:59:28.632Z,12.54
2022-09-10T03:00:31.420Z,12.63
2022-09-10T03:01:32.851Z,12.59
2022-09-10T03:02:34.327Z,12.49
2022-09-10T03:03:35.826Z,12.60
2022-09-10T03:04:37.381Z,12.56
2022-09-10T03:05:38.996Z,12.53
2022-09-10T03:06:40.453Z,12.49
2022-09-10T03:07:41.919Z,12.52
2022-09-10T03:08:43.341Z,12.47
2022-09-10T03:09:44.748Z,12.55
2022-09-10T03:10:46.244Z,12.53
2022-09-10T03:11:47.677Z,12.50
2022-09-10T03:12:49.137Z,12.54
2022-09-10T03:13:50.777Z,12.43
2022-09-10T03:14:52.303Z,12.46
2022-09-10T03:15:55.989Z,12.48
2022-09-10T03:16:57.465Z,12.53
2022-09-10T03:17:58.940Z,12.36
2022-09-10T03:19:00.367Z,12.46
2022-09-10T03:20:03.070Z,12.48
2022-09-10T03:21:08.749Z,12.51
2022-09-10T03:22:10.189Z,12.48
2022-09-10T03:23:11.665Z,12.53
2022-09-10T03:24:15.333Z,12.54
2022-09-10T03:25:17.551Z,12.44
2022-09-10T03:26:20.487Z,12.40
2022-09-10T03:27:21.897Z,12.29
2022-09-10T03:28:23.347Z,12.37
2022-09-10T03:29:24.882Z,12.45
2022-09-10T03:30:26.391Z,12.59
2022-09-10T03:31:29.186Z,12.55
2022-09-10T03:32:30.596Z,12.66
2022-09-10T03:33:32.628Z,12.68
2022-09-10T03:34:34.195Z,12.56
2022-09-10T03:35:35.625Z,12.53
2022-09-10T03:36:37.075Z,12.55
2022-09-10T03:37:38.485Z,12.60
2022-09-10T03:38:40.171Z,12.47
2022-09-10T03:39:41.791Z,12.29
2022-09-10T03:40:43.258Z,12.19
2022-09-10T03:41:45.001Z,12.17
2022-09-10T03:42:46.429Z,12.31
2022-09-10T03:43:47.879Z,12.35
2022-09-10T03:44:49.364Z,12.24
2022-09-10T03:45:51.238Z,11.94
2022-09-10T03:46:54.026Z,12.08
2022-09-10T03:47:55.479Z,12.12
2022-09-10T03:48:56.977Z,12.08
2022-09-10T03:49:58.414Z,12.08
2022-09-10T03:50:59.855Z,11.94
2022-09-10T03:52:01.679Z,11.94
2022-09-10T03:53:03.087Z,11.97
2022-09-10T03:54:04.740Z,12.09
2022-09-10T03:55:07.161Z,12.09
2022-09-10T03:56:08.920Z,12.10
2022-09-10T03:57:10.356Z,12.03
2022-09-10T03:58:12.650Z,12.08
2022-09-10T03:59:14.118Z,11.91
2022-09-10T04:00:16.111Z,12.00
2022-09-10T04:01:17.870Z,12.06
2022-09-10T04:02:20.787Z,12.00
2022-09-10T04:03:22.250Z,12.06
2022-09-10T04:04:23.863Z,12.08
2022-09-10T04:05:25.392Z,12.00
2022-09-10T04:06:26.856Z,12.04
2022-09-10T04:07:28.303Z,12.02
2022-09-10T04:08:29.743Z,11.99
2022-09-10T04:09:31.220Z,12.19
2022-09-10T04:10:32.897Z,11.88
2022-09-10T04:11:34.344Z,11.96
2022-09-10T04:12:35.780Z,11.89
2022-09-10T04:13:37.272Z,11.70
2022-09-10T04:14:38.757Z,11.94
2022-09-10T04:15:40.688Z,11.81
2022-09-10T04:16:42.260Z,11.80
2022-09-10T04:17:46.328Z,11.84
2022-09-10T04:18:47.753Z,12.03
2022-09-10T04:19:49.193Z,11.84
2022-09-10T04:20:50.629Z,11.93
2022-09-10T04:21:52.123Z,11.90
2022-09-10T04:22:54.032Z,11.83
2022-09-10T04:23:56.207Z,11.81
2022-09-10T04:24:57.641Z,11.80
2022-09-10T04:25:59.060Z,11.78
2022-09-10T04:27:00.515Z,11.80
2022-09-10T04:28:02.301Z,11.91
2022-09-10T04:29:03.831Z,11.94
2022-09-10T04:30:06.813Z,11.96
2022-09-10T04:31:08.595Z,11.82
2022-09-10T04:32:10.043Z,11.91
2022-09-10T04:33:13.103Z,11.94
2022-09-10T04:34:14.618Z,11.76
2022-09-10T04:35:16.199Z,11.94
2022-09-10T04:36:17.700Z,11.87
2022-09-10T04:37:19.501Z,11.97
2022-09-10T04:38:21.072Z,11.94
2022-09-10T04:39:22.475Z,11.89
2022-09-10T04:40:23.951Z,11.82
2022-09-10T04:41:25.416Z,11.82
2022-09-10T04:42:27.169Z,11.82
2022-09-10T04:43:28.950Z,11.81
2022-09-10T04:44:30.392Z,11.94
2022-09-10T04:45:31.908Z,11.91
2022-09-10T04:46:33.401Z,11.94
2022-09-10T04:47:35.023Z,11.96
2022-09-10T04:48:38.964Z,12.00
2022-09-10T04:49:40.501Z,12.21
2022-09-10T04:50:59.402Z,11.99
2022-09-10T04:52:03.538Z,11.80
2022-09-10T04:53:04.972Z,11.90
2022-09-10T04:54:06.551Z,11.96
2022-09-10T04:55:08.510Z,11.84
2022-09-10T04:56:10.336Z,11.82
2022-09-10T04:57:11.988Z,11.89
2022-09-10T04:58:13.500Z,11.76
2022-09-10T04:59:15.007Z,11.99
2022-09-10T05:00:16.820Z,11.99
2022-09-10T05:01:18.362Z,11.99
2022-09-10T05:02:20.055Z,12.03
2022-09-10T05:03:21.664Z,11.84
2022-09-10T05:04:24.595Z,11.72
2022-09-10T05:05:26.023Z,11.89
2022-09-10T05:06:27.501Z,11.93
2022-09-10T05:07:28.920Z,12.07
2022-09-10T05:08:30.700Z,12.09
2022-09-10T05:09:32.269Z,12.14
2022-09-10T05:10:33.813Z,12.15
2022-09-10T05:11:35.306Z,12.10
2022-09-10T05:12:37.216Z,12.13
2022-09-10T05:13:38.662Z,12.07
2022-09-10T05:14:40.086Z,12.00
2022-09-10T05:15:42.546Z,11.93
2022-09-10T05:16:44.029Z,11.89
2022-09-10T05:17:45.522Z,11.98
2022-09-10T05:18:46.957Z,11.86
2022-09-10T05:19:49.732Z,11.94
2022-09-10T05:20:51.198Z,12.06
2022-09-10T05:21:52.692Z,12.04
2022-09-10T05:22:54.143Z,11.91
2022-09-10T05:23:55.581Z,12.04
2022-09-10T05:24:56.988Z,12.14
2022-09-10T05:25:58.543Z,12.13
2022-09-10T05:27:00.229Z,12.14
2022-09-10T05:28:02.016Z,12.22
2022-09-10T05:29:03.478Z,12.09
2022-09-10T05:30:06.215Z,12.18
2022-09-10T05:31:07.654Z,12.21
2022-09-10T05:32:09.095Z,12.22
2022-09-10T05:33:10.535Z,12.29
2022-09-10T05:34:11.980Z,12.36
2022-09-10T05:35:14.904Z,12.27
2022-09-10T05:36:16.342Z,12.10
2022-09-10T05:37:18.051Z,12.29
2022-09-10T05:38:19.616Z,12.30
2022-09-10T05:39:21.023Z,12.34
2022-09-10T05:40:22.576Z,12.34
2022-09-10T05:41:24.065Z,12.22
2022-09-10T05:42:25.505Z,12.34
2022-09-10T05:43:27.044Z,12.33
2022-09-10T05:44:28.441Z,12.29
2022-09-10T05:45:29.920Z,12.31
2022-09-10T05:46:31.430Z,12.38
2022-09-10T05:47:32.889Z,12.10
2022-09-10T05:48:36.713Z,12.34
2022-09-10T05:49:40.012Z,12.27
2022-09-10T05:50:43.256Z,12.29
2022-09-10T05:51:44.659Z,12.47
2022-09-10T05:52:46.182Z,12.41
2022-09-10T05:53:47.664Z,12.55
2022-09-10T05:54:49.067Z,12.56
2022-09-10T05:55:50.586Z,12.43
2022-09-10T05:56:52.129Z,12.34
2022-09-10T05:57:53.584Z,12.39
2022-09-10T05:58:55.002Z,12.28
2022-09-10T05:59:56.500Z,12.30
2022-09-10T06:00:57.935Z,12.29
2022-09-10T06:01:59.471Z,12.13
2022-09-10T06:03:01.018Z,12.23
2022-09-10T06:04:03.235Z,12.20
2022-09-10T06:05:05.272Z,12.19
2022-09-10T06:06:08.708Z,12.12
2022-09-10T06:07:10.307Z,12.00
2022-09-10T06:08:11.736Z,12.03
2022-09-10T06:09:13.325Z,12.17
2022-09-10T06:10:15.351Z,12.16
2022-09-10T06:11:16.818Z,12.06
2022-09-10T06:12:18.277Z,12.10
2022-09-10T06:13:19.704Z,12.13
2022-09-10T06:14:21.234Z,12.01
2022-09-10T06:15:22.674Z,12.14
2022-09-10T06:16:24.217Z,11.95
2022-09-10T06:17:25.725Z,11.95
2022-09-10T06:18:27.366Z,12.10
2022-09-10T06:19:28.832Z,12.16
2022-09-10T06:20:30.263Z,12.14
2022-09-10T06:21:33.032Z,12.19
2022-09-10T06:22:34.487Z,12.15
2022-09-10T06:23:35.921Z,12.00
2022-09-10T06:24:37.386Z,12.22
2022-09-10T06:25:38.856Z,12.15
2022-09-10T06:26:40.457Z,12.11
2022-09-10T06:27:41.898Z,12.16
2022-09-10T06:28:43.744Z,12.18
2022-09-10T06:29:45.173Z,12.29
2022-09-10T06:30:46.658Z,12.34
2022-09-10T06:31:48.155Z,12.34
2022-09-10T06:32:49.555Z,12.35
2022-09-10T06:33:51.024Z,12.33
2022-09-10T06:34:52.436Z,12.36
2022-09-10T06:35:54.231Z,12.20
2022-09-10T06:36:57.232Z,12.21
2022-09-10T06:37:58.632Z,12.25
2022-09-10T06:39:00.175Z,12.19
2022-09-10T06:40:02.141Z,12.19
2022-09-10T06:41:06.316Z,12.24
2022-09-10T06:42:07.919Z,12.23
2022-09-10T06:43:09.319Z,12.24
2022-09-10T06:44:10.787Z,12.25
2022-09-10T06:45:12.206Z,12.20
2022-09-10T06:46:50.940Z,12.20
2022-09-10T06:48:59.243Z,12.24
2022-09-10T06:50:00.733Z,12.33
2022-09-10T06:51:02.171Z,12.26
2022-09-10T06:52:05.141Z,12.38
2022-09-10T06:53:06.559Z,12.09
2022-09-10T06:54:08.019Z,12.08
2022-09-10T06:55:09.658Z,12.17
2022-09-10T06:56:12.465Z,12.19
2022-09-10T06:57:14.588Z,12.10
2022-09-10T06:58:16.909Z,12.16
2022-09-10T06:59:18.340Z,11.98
2022-09-10T07:00:20.052Z,12.15
2022-09-10T07:01:21.588Z,11.87
2022-09-10T07:02:23.193Z,12.08
2022-09-10T07:03:24.699Z,12.09
2022-09-10T07:04:26.547Z,12.28
2022-09-10T07:05:28.021Z,12.27
2022-09-10T07:06:30.384Z,12.33
2022-09-10T07:07:33.153Z,12.22
2022-09-10T07:08:34.647Z,12.40
2022-09-10T07:09:36.081Z,12.40
2022-09-10T07:10:37.960Z,12.42
2022-09-10T07:11:41.690Z,12.50
2022-09-10T07:12:43.379Z,12.53
2022-09-10T07:13:44.811Z,12.57
2022-09-10T07:14:46.256Z,12.51
2022-09-10T07:15:47.769Z,12.52
2022-09-10T07:16:49.244Z,12.55
2022-09-10T07:17:50.702Z,12.59
2022-09-10T07:18:53.942Z,12.52
2022-09-10T07:19:55.374Z,12.35
2022-09-10T07:21:06.681Z,12.40
2022-09-10T07:22:08.107Z,12.43
2022-09-10T07:23:12.803Z,12.58
2022-09-10T07:24:14.535Z,12.41
2022-09-10T07:25:16.160Z,12.59
2022-09-10T07:26:19.047Z,12.55
2022-09-10T07:27:20.498Z,12.49
2022-09-10T07:28:21.957Z,12.42
2022-09-10T07:29:23.375Z,12.63
2022-09-10T07:30:24.852Z,12.52
2022-09-10T07:31:28.453Z,12.69
2022-09-10T07:32:32.274Z,12.79
2022-09-10T07:33:33.690Z,12.80
2022-09-10T07:34:35.104Z,12.90
2022-09-10T07:35:37.858Z,12.95
2022-09-10T07:36:39.344Z,12.97
2022-09-10T07:37:40.763Z,13.11
2022-09-10T07:38:44.415Z,13.17
2022-09-10T07:39:45.919Z,13.18
2022-09-10T07:40:47.452Z,12.94
2022-09-10T07:41:48.875Z,13.04
2022-09-10T07:42:50.312Z,13.03
2022-09-10T07:43:54.212Z,13.00
2022-09-10T07:44:55.621Z,13.05
2022-09-10T07:45:59.962Z,13.20
2022-09-10T07:47:03.854Z,13.30
2022-09-10T07:48:05.334Z,13.15
2022-09-10T07:49:06.790Z,13.04
2022-09-10T07:50:09.081Z,12.89
2022-09-10T07:51:10.525Z,13.00
2022-09-10T07:52:12.035Z,13.06
2022-09-10T07:53:13.486Z,13.22
2022-09-10T07:54:16.299Z,13.07
2022-09-10T07:55:17.700Z,13.24
2022-09-10T07:56:19.141Z,13.34
2022-09-10T07:57:20.577Z,13.39
2022-09-10T07:58:22.024Z,13.35
2022-09-10T07:59:23.441Z,13.14
2022-09-10T08:00:24.904Z,13.19
2022-09-10T08:01:26.564Z,13.24
2022-09-10T08:02:28.123Z,13.39
2022-09-10T08:03:29.849Z,13.49
2022-09-10T08:04:36.623Z,13.57
2022-09-10T08:05:38.530Z,13.59
2022-09-10T08:06:39.944Z,13.41
2022-09-10T08:07:41.657Z,13.55
2022-09-10T08:08:43.377Z,13.43
2022-09-10T08:09:46.183Z,13.47
2022-09-10T08:10:47.797Z,13.48
2022-09-10T08:11:49.271Z,13.58
2022-09-10T08:12:50.711Z,13.50
2022-09-10T08:13:54.122Z,13.49
2022-09-10T08:14:55.553Z,13.58
2022-09-10T08:15:57.251Z,13.51
2022-09-10T08:16:58.749Z,13.49
2022-09-10T08:18:00.180Z,13.48
2022-09-10T08:19:01.933Z,13.52
2022-09-10T08:20:04.248Z,13.53
2022-09-10T08:21:07.766Z,13.69
2022-09-10T08:22:13.281Z,13.71
2022-09-10T08:23:15.164Z,13.62
2022-09-10T08:24:16.658Z,13.63
2022-09-10T08:25:19.398Z,13.68
2022-09-10T08:26:21.583Z,13.61
2022-09-10T08:27:23.086Z,13.38
2022-09-10T08:28:25.668Z,13.55
2022-09-10T08:29:27.207Z,13.74
2022-09-10T08:30:28.637Z,13.67
2022-09-10T08:31:30.108Z,13.59
2022-09-10T08:32:33.768Z,13.75
2022-09-10T08:33:36.254Z,13.79
2022-09-10T08:34:37.687Z,13.72
2022-09-10T08:35:39.102Z,13.89
2022-09-10T08:36:40.580Z,13.85
2022-09-10T08:37:42.003Z,14.06
2022-09-10T08:38:43.955Z,13.92
2022-09-10T08:39:45.450Z,14.06
2022-09-10T08:40:48.257Z,14.09
2022-09-10T08:41:53.838Z,13.99
2022-09-10T08:42:55.393Z,14.12
2022-09-10T08:44:00.071Z,14.18
2022-09-10T08:45:06.835Z,14.31
2022-09-10T08:46:16.909Z,14.01
2022-09-10T08:47:28.172Z,14.04
2022-09-10T08:48:32.497Z,14.18
2022-09-10T08:49:37.830Z,14.06
2022-09-10T08:50:45.696Z,14.03
2022-09-10T08:51:51.832Z,13.88
2022-09-10T08:52:58.252Z,14.14
2022-09-10T08:54:04.994Z,14.42
2022-09-10T08:55:19.086Z,14.56
2022-09-10T08:56:23.427Z,14.52
2022-09-10T08:57:31.280Z,14.59
2022-09-10T08:58:42.005Z,14.65
2022-09-10T08:59:45.833Z,14.59
2022-09-10T09:00:51.612Z,14.65
2022-09-10T09:01:58.177Z,14.59
2022-09-10T09:03:04.961Z,14.39
2022-09-10T09:04:13.800Z,14.41
2022-09-10T09:05:17.619Z,14.47
2022-09-10T09:06:26.980Z,14.43
2022-09-10T09:07:33.800Z,14.59
2022-09-10T09:08:37.486Z,14.72
2022-09-10T09:09:38.975Z,14.73
2022-09-10T09:10:47.440Z,14.70
2022-09-10T09:11:57.366Z,14.52
2022-09-10T09:13:22.743Z,14.46
2022-09-10T09:14:38.564Z,14.42
2022-09-10T09:15:47.405Z,14.48
2022-09-10T09:17:04.217Z,14.42
2022-09-10T09:18:19.577Z,14.50
2022-09-10T09:19:29.620Z,14.18
2022-09-10T09:20:42.520Z,14.22
2022-09-10T09:21:50.679Z,13.96
2022-09-10T09:22:54.296Z,14.07
2022-09-10T09:24:12.576Z,13.91
2022-09-10T09:25:22.220Z,14.07
2022-09-10T09:26:29.146Z,14.27
2022-09-10T09:27:36.311Z,14.35
2022-09-10T09:28:48.925Z,14.41
2022-09-10T09:29:55.825Z,14.30
2022-09-10T09:30:59.678Z,14.47
2022-09-10T09:32:04.312Z,14.48
2022-09-10T09:33:14.090Z,14.26
2022-09-10T09:34:21.419Z,14.42
2022-09-10T09:35:30.907Z,14.43
2022-09-10T09:36:37.183Z,14.48
2022-09-10T09:37:42.771Z,14.32
2022-09-10T09:38:47.580Z,14.36
2022-09-10T09:39:56.337Z,14.48
2022-09-10T09:41:00.168Z,14.54
2022-09-10T09:42:09.972Z,14.53
2022-09-10T09:43:19.521Z,14.38
2022-09-10T09:44:26.373Z,14.70
2022-09-10T09:45:35.321Z,14.80
2022-09-10T09:46:36.793Z,14.81
2022-09-10T09:47:38.263Z,14.69
2022-09-10T09:48:41.033Z,14.62
2022-09-10T09:49:42.619Z,14.42
2022-09-10T09:50:47.011Z,14.27
2022-09-10T09:51:49.140Z,14.31
2022-09-10T09:52:55.056Z,14.54
2022-09-10T09:54:25.719Z,14.65
2022-09-10T09:55:29.610Z,14.61
2022-09-10T09:56:36.946Z,14.40
2022-09-10T09:57:38.380Z,14.22
2022-09-10T09:58:47.788Z,14.15
2022-09-10T09:59:50.571Z,13.82
2022-09-10T10:00:54.755Z,13.85
2022-09-10T10:02:00.484Z,13.79
2022-09-10T10:03:12.976Z,13.68
2022-09-10T10:04:20.828Z,13.54
2022-09-10T10:05:24.263Z,13.57
2022-09-10T10:06:29.494Z,13.62
2022-09-10T10:07:32.986Z,13.80
2022-09-10T10:08:38.983Z,13.80
2022-09-10T10:09:43.446Z,13.92
2022-09-10T10:10:51.835Z,13.65
2022-09-10T10:11:55.429Z,13.92
2022-09-10T10:12:56.903Z,13.65
2022-09-10T10:14:12.687Z,14.01
2022-09-10T10:15:34.975Z,14.04
2022-09-10T10:16:36.539Z,14.11
2022-09-10T10:17:38.828Z,14.37
2022-09-10T10:18:42.573Z,14.50
2022-09-10T10:19:57.253Z,14.53
2022-09-10T10:21:14.338Z,14.56
2022-09-10T10:22:25.326Z,14.61
2022-09-10T10:23:33.340Z,14.41
2022-09-10T10:24:34.904Z,14.27
2022-09-10T10:25:38.605Z,14.35
2022-09-10T10:26:40.140Z,14.26
2022-09-10T10:27:43.091Z,14.46
2022-09-10T10:28:47.057Z,14.67
2022-09-10T10:29:55.253Z,14.59
2022-09-10T10:31:00.883Z,14.40
2022-09-10T10:32:05.670Z,14.61
2022-09-10T10:33:16.713Z,14.68
2022-09-10T10:34:47.975Z,14.72
2022-09-10T10:35:53.882Z,14.46
2022-09-10T10:37:03.439Z,14.41
2022-09-10T10:38:18.320Z,14.78
2022-09-10T10:39:31.361Z,14.76
2022-09-10T10:40:35.456Z,14.86
2022-09-10T10:41:50.911Z,15.46
2022-09-10T10:42:58.872Z,15.78
2022-09-10T10:44:19.900Z,15.70
2022-09-10T10:45:35.613Z,15.68
2022-09-10T10:46:45.692Z,15.17
2022-09-10T10:47:53.866Z,14.80
2022-09-10T10:49:05.648Z,14.57
2022-09-10T10:50:19.084Z,14.56
2022-09-10T10:51:31.183Z,14.37
2022-09-10T10:52:42.413Z,14.27
2022-09-10T10:54:06.412Z,14.51
2022-09-10T10:55:19.559Z,14.39
2022-09-10T10:56:27.893Z,14.50
2022-09-10T10:57:43.034Z,14.23
2022-09-10T10:59:00.745Z,14.21
2022-09-10T11:00:04.605Z,14.29
2022-09-10T11:01:17.846Z,14.22
2022-09-10T11:02:28.020Z,14.35
2022-09-10T11:03:37.525Z,14.33
2022-09-10T11:04:43.917Z,14.36
2022-09-10T11:05:48.437Z,14.38
2022-09-10T11:06:55.732Z,14.62
2022-09-10T11:07:59.645Z,14.73
2022-09-10T11:09:05.972Z,14.48
2022-09-10T11:10:14.782Z,14.68
2022-09-10T11:11:20.579Z,14.89
2022-09-10T11:12:31.609Z,14.83
2022-09-10T11:13:40.072Z,14.81
2022-09-10T11:14:47.786Z,14.91
2022-09-10T11:15:53.299Z,14.91
2022-09-10T11:16:59.943Z,14.81
2022-09-10T11:18:10.461Z,14.92
2022-09-10T11:19:18.102Z,15.06
2022-09-10T11:20:30.121Z,14.59
2022-09-10T11:21:36.645Z,14.83
2022-09-10T11:22:41.871Z,14.81
2022-09-10T11:23:47.631Z,14.72
2022-09-10T11:24:54.709Z,14.73
2022-09-10T11:26:01.165Z,14.66
2022-09-10T11:27:09.308Z,14.58
2022-09-10T11:28:14.423Z,14.60
2022-09-10T11:29:31.662Z,14.86
2022-09-10T11:30:34.770Z,15.02
2022-09-10T11:31:42.141Z,15.00
2022-09-10T11:32:54.098Z,14.94
2022-09-10T11:34:00.665Z,14.79
2022-09-10T11:35:11.347Z,14.88
2022-09-10T11:36:23.767Z,14.73
2022-09-10T11:37:34.694Z,14.49
2022-09-10T11:38:47.356Z,14.47
2022-09-10T11:39:51.529Z,14.52
2022-09-10T11:41:06.658Z,14.35
2022-09-10T11:42:16.184Z,14.39
2022-09-10T11:43:26.756Z,14.35
2022-09-10T11:44:42.246Z,14.28
2022-09-10T11:45:49.310Z,14.27
2022-09-10T11:47:00.904Z,14.35
2022-09-10T11:48:12.302Z,14.37
2022-09-10T11:49:15.760Z,14.38
2022-09-10T11:50:24.661Z,14.27
2022-09-10T11:51:29.853Z,14.58
2022-09-10T11:52:32.330Z,14.34
2022-09-10T11:53:35.309Z,14.34
2022-09-10T11:54:37.501Z,14.31
2022-09-10T11:55:51.790Z,14.29
2022-09-10T11:57:01.254Z,14.38
2022-09-10T11:58:08.871Z,14.30
2022-09-10T11:59:22.278Z,14.12
2022-09-10T12:00:24.000Z,14.23
2022-09-10T12:01:42.369Z,14.25
2022-09-10T12:03:24.799Z,14.27
2022-09-10T12:04:45.656Z,14.39
2022-09-10T12:06:01.147Z,14.53
2022-09-10T12:07:14.547Z,14.49
2022-09-10T12:08:27.785Z,14.71
2022-09-10T12:09:38.405Z,14.80
2022-09-10T12:10:46.771Z,14.99
2022-09-10T12:11:57.074Z,15.20
2022-09-10T12:12:59.108Z,15.14
2022-09-10T12:14:06.277Z,15.05
2022-09-10T12:15:09.761Z,14.93
2022-09-10T12:16:25.417Z,15.26
2022-09-10T12:17:32.189Z,15.24
2022-09-10T12:18:42.764Z,15.33
2022-09-10T12:19:49.771Z,15.39
2022-09-10T12:20:54.424Z,15.24
2022-09-10T12:21:59.547Z,15.06
2022-09-10T12:23:01.249Z,15.32
2022-09-10T12:24:07.268Z,15.20
2022-09-10T12:25:25.285Z,15.22
2022-09-10T12:26:26.903Z,15.07
2022-09-10T12:27:44.773Z,14.82
2022-09-10T12:29:03.831Z,14.74
2022-09-10T12:30:38.575Z,14.67
2022-09-10T12:32:25.461Z,14.62
2022-09-10T12:34:14.297Z,14.61
2022-09-10T12:35:48.548Z,14.73
2022-09-10T12:37:18.664Z,14.72
2022-09-10T12:38:48.115Z,14.76
2022-09-10T12:40:13.094Z,14.72
2022-09-10T12:41:47.836Z,14.69
2022-09-10T12:42:50.861Z,14.82
2022-09-10T12:43:55.058Z,14.98
2022-09-10T12:44:56.714Z,14.94
2022-09-10T12:46:02.239Z,14.98
2022-09-10T12:47:40.325Z,15.01
2022-09-10T12:48:43.957Z,15.15
2022-09-10T12:49:48.347Z,15.16
2022-09-10T12:50:53.371Z,15.03
2022-09-10T12:51:59.166Z,15.26
2022-09-10T12:53:36.267Z,15.34
2022-09-10T12:54:52.466Z,15.22
2022-09-10T12:56:01.339Z,15.17
2022-09-10T12:57:20.287Z,15.31
2022-09-10T12:58:33.557Z,15.33
2022-09-10T13:00:03.967Z,15.23
2022-09-10T13:01:17.161Z,15.08
2022-09-10T13:02:26.484Z,14.92
2022-09-10T13:03:30.187Z,14.76
2022-09-10T13:04:35.785Z,14.75
2022-09-10T13:05:49.093Z,14.76
2022-09-10T13:06:53.808Z,14.91
2022-09-10T13:08:17.342Z,14.65
2022-09-10T13:09:22.407Z,14.77
2022-09-10T13:10:26.147Z,14.77
2022-09-10T13:11:35.919Z,14.84
2022-09-10T13:12:42.418Z,15.03
2022-09-10T13:13:52.029Z,15.01
2022-09-10T13:14:56.167Z,14.93
2022-09-10T13:15:57.709Z,15.13
2022-09-10T13:16:59.247Z,15.04
2022-09-10T13:18:27.407Z,15.35
2022-09-10T13:19:51.128Z,15.49
2022-09-10T13:20:52.771Z,15.43
2022-09-10T13:21:55.191Z,15.48
2022-09-10T13:22:58.583Z,15.44
2022-09-10T13:24:00.074Z,15.39
2022-09-10T13:25:05.916Z,15.56
2022-09-10T13:26:46.964Z,15.44
2022-09-10T13:27:48.375Z,15.50
2022-09-10T13:29:04.615Z,15.54
2022-09-10T13:30:18.098Z,15.62
2022-09-10T13:31:24.803Z,15.68
2022-09-10T13:32:33.109Z,15.59
2022-09-10T13:33:50.595Z,15.65
2022-09-10T13:35:19.351Z,15.83
2022-09-10T13:36:28.247Z,15.95
2022-09-10T13:38:15.779Z,15.70
2022-09-10T13:39:34.995Z,15.70
2022-09-10T13:41:04.665Z,15.86
2022-09-10T13:42:35.594Z,15.87
2022-09-10T13:43:49.471Z,15.87
2022-09-10T13:45:09.535Z,15.86
2022-09-10T13:46:19.977Z,15.89
2022-09-10T13:47:27.037Z,15.56
2022-09-10T13:48:34.190Z,15.70
2022-09-10T13:49:43.722Z,15.84
2022-09-10T13:50:50.819Z,15.68
2022-09-10T13:51:55.244Z,15.56
2022-09-10T13:53:00.258Z,15.66
2022-09-10T13:54:07.821Z,15.70
2022-09-10T13:55:17.753Z,15.83
2022-09-10T13:56:22.802Z,16.00
2022-09-10T13:57:27.868Z,16.13
2022-09-10T13:58:34.952Z,16.17
2022-09-10T13:59:37.600Z,16.22
2022-09-10T14:00:48.830Z,16.24
2022-09-10T14:01:52.088Z,15.81
2022-09-10T14:02:55.329Z,15.81
2022-09-10T14:03:56.792Z,15.80
2022-09-10T14:04:58.217Z,15.97
2022-09-10T14:06:02.255Z,16.12